Time;durP1;ratioP1;P1;durP2;ratioP2;P2;SDS_P1;SDS_P2;PMS_P1;PMS_P2;Temp;Humidity;BMP_temperature;BMP_pressure;BME280_temperature;BME280_humidity;BME280_pressure;Samples;Min_cycle;Max_cycle;Signal;HPM_P1;HPM_P2
2023/03/13 00:01:16;;;;;;;8.95;7.20;;;12.40;99.90;;;;;;5052549;28;20021;-63
2023/03/13 00:03:42;;;;;;;8.57;6.82;;;12.50;99.90;;;;;;5052428;28;20074;-63
2023/03/13 00:06:08;;;;;;;7.20;6.50;;;12.60;99.90;;;;;;5052097;28;20025;-63
2023/03/13 00:08:34;;;;;;;8.80;6.70;;;12.40;99.90;;;;;;5052537;28;20035;-63
2023/03/13 00:11:07;;;;;;;7.25;6.50;;;12.30;99.90;;;;;;5052297;28;20481;-63
2023/03/13 00:13:34;;;;;;;7.80;5.88;;;12.30;99.90;;;;;;5051877;28;20505;-63
2023/03/13 00:16:08;;;;;;;7.60;6.72;;;12.50;99.90;;;;;;5051991;28;20060;-63
2023/03/13 00:18:34;;;;;;;8.75;7.55;;;12.50;99.90;;;;;;5052115;28;20029;-63
2023/03/13 00:21:04;;;;;;;9.57;7.78;;;12.40;99.90;;;;;;5052153;28;20072;-63
2023/03/13 00:23:32;;;;;;;6.38;4.72;;;12.40;99.90;;;;;;5052133;28;20102;-63
2023/03/13 00:25:58;;;;;;;4.82;4.43;;;12.30;99.90;;;;;;5052134;28;20017;-62
2023/03/13 00:28:24;;;;;;;6.68;4.57;;;12.50;99.90;;;;;;5052096;28;20485;-63
2023/03/13 00:30:50;;;;;;;5.13;4.40;;;12.60;99.90;;;;;;5052407;28;20029;-63
2023/03/13 00:33:15;;;;;;;8.32;4.78;;;12.50;99.90;;;;;;5051636;28;20525;-63
2023/03/13 00:35:41;;;;;;;5.68;4.60;;;12.50;99.90;;;;;;5051933;28;20029;-62
2023/03/13 00:38:07;;;;;;;8.25;5.18;;;12.40;99.90;;;;;;5052261;28;20102;-63
2023/03/13 00:40:32;;;;;;;7.22;4.07;;;12.20;99.90;;;;;;5052047;28;20370;-63
2023/03/13 00:42:58;;;;;;;7.03;4.47;;;12.40;99.90;;;;;;5051846;28;20021;-63
2023/03/13 00:45:25;;;;;;;6.80;4.75;;;12.40;99.90;;;;;;5051810;28;20031;-63
2023/03/13 00:47:51;;;;;;;7.00;4.28;;;12.30;99.90;;;;;;5055322;28;20531;-63
2023/03/13 00:50:17;;;;;;;4.88;4.47;;;12.20;99.90;;;;;;5055912;28;20027;-63
2023/03/13 00:52:42;;;;;;;4.97;4.05;;;12.00;99.90;;;;;;5055912;28;20029;-63
2023/03/13 00:55:09;;;;;;;7.38;5.60;;;11.80;99.90;;;;;;5055826;28;20063;-63
2023/03/13 00:57:36;;;;;;;6.28;5.57;;;11.70;99.90;;;;;;5055958;28;20029;-63
2023/03/13 01:00:05;;;;;;;8.35;6.15;;;11.50;99.90;;;;;;5055831;28;20033;-63
2023/03/13 01:02:30;;;;;;;11.63;6.53;;;11.40;99.90;;;;;;5055403;28;20079;-63
2023/03/13 01:04:56;;;;;;;11.10;7.35;;;11.50;99.90;;;;;;5055571;28;20502;-63
2023/03/13 01:07:22;;;;;;;9.52;6.97;;;11.50;99.90;;;;;;5055717;28;20049;-63
2023/03/13 01:09:47;;;;;;;7.63;6.00;;;11.40;99.90;;;;;;5055621;28;20033;-63
2023/03/13 01:12:13;;;;;;;7.93;5.93;;;11.30;99.90;;;;;;5055375;28;20175;-63
2023/03/13 01:14:39;;;;;;;5.38;4.65;;;11.30;99.90;;;;;;5055121;28;20044;-63
2023/03/13 01:17:04;;;;;;;6.97;4.88;;;11.40;99.90;;;;;;5054234;28;20469;-64
2023/03/13 01:19:30;;;;;;;6.35;5.35;;;11.40;99.90;;;;;;5055043;28;20029;-63
2023/03/13 01:21:56;;;;;;;6.90;5.82;;;11.40;99.90;;;;;;5055484;28;20398;-63
2023/03/13 01:24:23;;;;;;;7.25;5.10;;;11.50;99.90;;;;;;5055474;28;20048;-63
2023/03/13 01:26:49;;;;;;;6.97;4.80;;;11.50;99.90;;;;;;5055262;28;20446;-63
2023/03/13 01:29:14;;;;;;;6.25;4.50;;;11.80;99.90;;;;;;5055689;28;20110;-63
2023/03/13 01:31:40;;;;;;;5.50;4.10;;;12.20;99.90;;;;;;5054827;28;20029;-63
2023/03/13 01:34:06;;;;;;;7.05;4.50;;;12.00;99.90;;;;;;5054887;28;20093;-63
2023/03/13 01:36:34;;;;;;;6.57;4.00;;;12.10;99.90;;;;;;5055536;28;20025;-63
2023/03/13 01:39:00;;;;;;;6.38;3.97;;;12.20;99.90;;;;;;5054663;28;20329;-63
2023/03/13 01:41:28;;;;;;;5.65;4.03;;;11.90;99.90;;;;;;5054933;28;20025;-63
2023/03/13 01:43:56;;;;;;;6.68;4.85;;;12.10;99.90;;;;;;5054927;28;20045;-63
2023/03/13 01:46:24;;;;;;;7.15;4.40;;;12.10;99.90;;;;;;5054516;28;20023;-63
2023/03/13 01:49:02;;;;;;;5.30;4.35;;;12.10;99.90;;;;;;5054578;28;20023;-63
2023/03/13 01:51:30;;;;;;;6.55;4.70;;;12.00;99.90;;;;;;5055206;28;20021;-63
2023/03/13 01:54:03;;;;;;;6.30;4.40;;;12.00;99.90;;;;;;5054324;28;20044;-63
2023/03/13 01:56:58;;;;;;;5.63;4.00;;;12.10;99.90;;;;;;5054885;28;20132;-63
2023/03/13 01:59:46;;;;;;;4.22;3.83;;;12.10;99.90;;;;;;5052586;28;20040;-63
2023/03/13 02:02:13;;;;;;;7.53;4.43;;;12.00;99.90;;;;;;5054073;28;20044;-63
2023/03/13 02:04:44;;;;;;;5.57;3.90;;;12.10;99.90;;;;;;5054443;28;20029;-63
2023/03/13 02:07:14;;;;;;;5.90;4.30;;;12.20;99.90;;;;;;5054459;28;20029;-63
2023/03/13 02:09:42;;;;;;;3.50;3.20;;;12.20;99.90;;;;;;5054419;28;20025;-63
2023/03/13 02:12:16;;;;;;;3.90;3.40;;;12.10;99.90;;;;;;5054083;28;20546;-63
2023/03/13 02:14:45;;;;;;;5.00;3.45;;;12.30;99.90;;;;;;5053884;28;20033;-62
2023/03/13 02:17:12;;;;;;;3.85;3.55;;;12.40;99.90;;;;;;5053938;28;20032;-63
2023/03/13 02:19:47;;;;;;;3.35;3.05;;;12.40;99.90;;;;;;5054608;28;20060;-63
2023/03/13 02:22:55;;;;;;;3.83;3.15;;;12.40;99.90;;;;;;5054168;28;20112;-63
2023/03/13 02:25:24;;;;;;;5.57;4.28;;;12.30;99.90;;;;;;5032022;28;20037;-62
2023/03/13 02:28:12;;;;;;;5.57;4.47;;;12.20;99.90;;;;;;5032028;28;20029;-63
2023/03/13 02:30:40;;;;;;;4.65;4.20;;;12.20;99.90;;;;;;5031583;28;20426;-63
2023/03/13 02:33:06;;;;;;;3.67;3.10;;;12.10;99.90;;;;;;5031870;28;20033;-63
2023/03/13 02:35:33;;;;;;;4.13;2.85;;;12.30;99.90;;;;;;5031659;28;20115;-63
2023/03/13 02:38:04;;;;;;;3.10;2.75;;;12.40;99.90;;;;;;5032016;28;20033;-63
2023/03/13 02:40:34;;;;;;;4.05;2.70;;;12.20;99.90;;;;;;5032134;28;20485;-63
2023/03/13 02:43:03;;;;;;;3.10;2.53;;;12.40;99.90;;;;;;5031756;28;20072;-63
2023/03/13 02:45:29;;;;;;;2.13;1.92;;;12.50;99.90;;;;;;5031232;28;20061;-63
2023/03/13 02:47:54;;;;;;;3.05;2.28;;;12.40;99.90;;;;;;5031481;28;20053;-63
2023/03/13 02:50:20;;;;;;;2.55;2.35;;;12.50;99.90;;;;;;5032020;28;20113;-63
2023/03/13 02:52:50;;;;;;;3.08;2.42;;;12.40;99.90;;;;;;5031742;28;20483;-63
2023/03/13 02:55:25;;;;;;;3.13;2.70;;;12.60;99.90;;;;;;5031156;28;20049;-63
2023/03/13 02:57:50;;;;;;;3.63;2.83;;;12.30;99.90;;;;;;5031714;28;20374;-63
2023/03/13 03:00:17;;;;;;;3.50;2.97;;;12.40;99.90;;;;;;5030999;28;20083;-63
2023/03/13 03:02:44;;;;;;;5.40;3.67;;;12.40;99.90;;;;;;5032948;28;20033;-63
2023/03/13 03:05:11;;;;;;;3.85;3.55;;;12.30;99.90;;;;;;5033609;28;20032;-63
2023/03/13 03:07:37;;;;;;;5.30;4.72;;;12.30;99.90;;;;;;5033761;28;20033;-63
2023/03/13 03:10:03;;;;;;;8.45;5.32;;;12.20;99.90;;;;;;5033380;28;20026;-63
2023/03/13 03:12:29;;;;;;;5.90;4.32;;;12.20;99.90;;;;;;5033143;28;20140;-63
2023/03/13 03:14:55;;;;;;;4.65;2.80;;;12.40;99.90;;;;;;5032907;28;20560;-64
2023/03/13 03:17:20;;;;;;;4.60;4.20;;;12.30;99.90;;;;;;5033249;28;20030;-63
2023/03/13 03:19:46;;;;;;;4.00;3.60;;;12.10;99.90;;;;;;5053636;28;20396;-63
2023/03/13 03:22:12;;;;;;;3.10;2.90;;;12.00;99.90;;;;;;5053056;28;20047;-63
2023/03/13 03:24:37;;;;;;;2.78;2.58;;;11.90;99.90;;;;;;5053139;28;20092;-63
2023/03/13 03:27:03;;;;;;;2.90;2.70;;;12.20;99.90;;;;;;5053055;28;20017;-63
2023/03/13 03:29:29;;;;;;;3.85;3.55;;;12.20;99.90;;;;;;5052578;28;20037;-63
2023/03/13 03:31:55;;;;;;;3.10;2.90;;;12.10;99.90;;;;;;5052883;28;20017;-63
2023/03/13 03:34:21;;;;;;;3.38;2.50;;;12.20;99.90;;;;;;5052656;28;20416;-63
2023/03/13 03:36:47;;;;;;;2.58;2.30;;;12.30;99.90;;;;;;5051731;28;20036;-63
2023/03/13 03:39:12;;;;;;;2.70;2.13;;;12.30;99.90;;;;;;5053340;28;20112;-64
2023/03/13 03:41:38;;;;;;;2.33;2.13;;;12.30;99.90;;;;;;5052489;28;20105;-63
2023/03/13 03:44:04;;;;;;;3.58;2.30;;;12.50;99.90;;;;;;5052606;28;20021;-63
2023/03/13 03:46:30;;;;;;;2.75;2.40;;;12.40;99.90;;;;;;5052424;28;20507;-63
2023/03/13 03:48:56;;;;;;;2.67;2.47;;;12.50;99.90;;;;;;5052821;28;20044;-63
2023/03/13 03:51:22;;;;;;;3.05;2.05;;;12.50;99.90;;;;;;5052394;28;20033;-63
2023/03/13 03:53:48;;;;;;;2.97;2.20;;;12.20;99.90;;;;;;5052567;28;20029;-63
2023/03/13 03:56:13;;;;;;;2.47;2.28;;;12.20;99.90;;;;;;5052022;28;20504;-63
2023/03/13 03:58:39;;;;;;;3.00;2.35;;;12.40;99.90;;;;;;5052319;28;20021;-63
2023/03/13 04:01:05;;;;;;;2.60;2.40;;;12.50;99.90;;;;;;5052836;28;20033;-63
2023/03/13 04:03:31;;;;;;;2.80;2.58;;;12.40;99.90;;;;;;5052374;28;20083;-63
2023/03/13 04:05:57;;;;;;;2.70;2.50;;;12.10;99.90;;;;;;5052423;28;20078;-63
2023/03/13 04:08:23;;;;;;;2.50;2.30;;;12.30;99.90;;;;;;5052369;28;20017;-63
2023/03/13 04:10:49;;;;;;;6.72;2.95;;;12.30;99.90;;;;;;5051821;28;20021;-63
2023/03/13 04:13:15;;;;;;;3.33;2.80;;;12.10;99.90;;;;;;5052063;28;20052;-63
2023/03/13 04:15:41;;;;;;;3.72;3.00;;;12.20;99.90;;;;;;5052546;28;20040;-63
2023/03/13 04:18:07;;;;;;;3.33;2.70;;;12.20;99.90;;;;;;5051945;28;20024;-63
2023/03/13 04:20:33;;;;;;;4.03;2.97;;;12.20;99.90;;;;;;5051768;28;20040;-63
2023/03/13 04:22:58;;;;;;;3.22;2.92;;;12.30;99.90;;;;;;5052427;28;20436;-63
2023/03/13 04:25:24;;;;;;;3.10;2.50;;;12.20;99.90;;;;;;5051643;28;20036;-63
2023/03/13 04:27:50;;;;;;;4.15;2.85;;;12.00;99.90;;;;;;5051839;28;20028;-63
2023/03/13 04:30:16;;;;;;;4.07;3.60;;;12.10;99.90;;;;;;5051921;28;20032;-64
2023/03/13 04:32:42;;;;;;;6.50;5.45;;;12.20;99.90;;;;;;5052254;28;20031;-64
2023/03/13 04:35:08;;;;;;;6.00;5.38;;;12.20;99.90;;;;;;5052376;28;20405;-63
2023/03/13 04:37:34;;;;;;;7.22;6.53;;;12.00;99.90;;;;;;5051886;28;20398;-63
2023/03/13 04:40:00;;;;;;;5.00;4.50;;;12.20;99.90;;;;;;5051276;28;20029;-63
2023/03/13 04:42:26;;;;;;;5.25;4.75;;;12.10;99.90;;;;;;5052144;28;20104;-63
2023/03/13 04:44:51;;;;;;;4.70;4.30;;;12.10;99.90;;;;;;5051892;28;20104;-63
2023/03/13 04:47:17;;;;;;;3.40;3.08;;;12.10;99.90;;;;;;5051785;28;20396;-63
2023/03/13 04:49:43;;;;;;;5.72;2.92;;;12.10;99.90;;;;;;5051802;28;20489;-63
2023/03/13 04:52:09;;;;;;;3.45;3.10;;;12.00;99.90;;;;;;5051812;28;20404;-64
2023/03/13 04:54:35;;;;;;;3.95;3.30;;;11.90;99.90;;;;;;5051511;28;20041;-63
2023/03/13 04:57:00;;;;;;;4.60;3.35;;;12.00;99.90;;;;;;5051708;28;20025;-63
2023/03/13 04:59:26;;;;;;;4.43;4.03;;;12.10;99.90;;;;;;5051948;28;20040;-63
2023/03/13 05:01:52;;;;;;;3.60;3.30;;;12.00;99.90;;;;;;5051954;28;20379;-63
2023/03/13 05:04:17;;;;;;;4.72;3.42;;;12.00;99.90;;;;;;5051786;28;20423;-63
2023/03/13 05:06:43;;;;;;;3.60;3.30;;;11.90;99.90;;;;;;5051729;28;20096;-63
2023/03/13 05:09:09;;;;;;;3.58;3.28;;;12.00;99.90;;;;;;5051426;28;20029;-63
2023/03/13 05:11:35;;;;;;;4.00;3.60;;;12.00;99.90;;;;;;5051771;28;20029;-64
2023/03/13 05:14:01;;;;;;;6.47;5.15;;;12.00;99.90;;;;;;5051766;28;20067;-64
2023/03/13 05:16:26;;;;;;;6.57;5.30;;;12.00;99.90;;;;;;5051622;28;20397;-63
2023/03/13 05:18:52;;;;;;;14.43;13.13;;;12.00;99.90;;;;;;5051481;28;20028;-64
2023/03/13 05:21:18;;;;;;;24.60;22.30;;;11.90;99.90;;;;;;5051627;28;20021;-63
2023/03/13 05:23:43;;;;;;;37.47;34.03;;;11.90;99.90;;;;;;5051248;28;20086;-63
2023/03/13 05:26:09;;;;;;;70.60;64.20;;;11.90;99.90;;;;;;5051787;28;20104;-63
2023/03/13 05:28:35;;;;;;;67.85;60.90;;;11.90;99.90;;;;;;5051622;28;20029;-63
2023/03/13 05:31:00;;;;;;;61.47;55.35;;;11.90;99.90;;;;;;5051551;28;20061;-63
2023/03/13 05:33:26;;;;;;;46.20;41.70;;;11.90;99.90;;;;;;5052698;28;20469;-63
2023/03/13 05:35:52;;;;;;;34.58;31.25;;;12.00;99.90;;;;;;5054989;28;20033;-63
2023/03/13 05:38:17;;;;;;;21.27;19.10;;;11.90;99.90;;;;;;5054770;28;20091;-63
2023/03/13 05:40:43;;;;;;;13.68;12.27;;;11.90;99.90;;;;;;5053950;28;20414;-63
2023/03/13 05:43:09;;;;;;;9.00;8.20;;;11.90;99.90;;;;;;5055171;28;20032;-63
2023/03/13 05:45:34;;;;;;;5.93;5.47;;;12.00;99.90;;;;;;5054880;28;20393;-63
2023/03/13 05:48:00;;;;;;;6.18;5.57;;;12.00;99.90;;;;;;5054544;28;20037;-63
2023/03/13 05:50:26;;;;;;;5.43;4.47;;;12.00;99.90;;;;;;5054974;28;20429;-64
2023/03/13 05:52:52;;;;;;;4.97;4.32;;;12.00;99.90;;;;;;5054500;28;20034;-63
2023/03/13 05:55:18;;;;;;;3.70;3.40;;;11.90;99.90;;;;;;5054563;28;20029;-63
2023/03/13 05:57:48;;;;;;;3.72;3.42;;;11.70;99.90;;;;;;5055056;28;20115;-63
2023/03/13 06:00:15;;;;;;;4.13;3.75;;;11.90;99.90;;;;;;5054621;28;20112;-63
2023/03/13 06:02:41;;;;;;;4.88;3.10;;;11.80;99.90;;;;;;5054572;28;20029;-63
2023/03/13 06:05:07;;;;;;;3.30;3.00;;;11.80;99.90;;;;;;5055008;28;20036;-63
2023/03/13 06:07:33;;;;;;;3.17;2.90;;;11.90;99.90;;;;;;5054117;28;20025;-63
2023/03/13 06:09:59;;;;;;;4.20;3.33;;;11.70;99.90;;;;;;5054395;28;20029;-63
2023/03/13 06:12:24;;;;;;;3.83;3.05;;;11.80;99.90;;;;;;5054286;28;20041;-63
2023/03/13 06:14:50;;;;;;;4.63;3.40;;;11.70;99.90;;;;;;5054278;28;20040;-64
2023/03/13 06:17:16;;;;;;;4.55;3.30;;;11.70;99.90;;;;;;5054414;28;20481;-63
2023/03/13 06:19:42;;;;;;;4.38;3.13;;;11.60;99.90;;;;;;5054036;28;20032;-63
2023/03/13 06:22:07;;;;;;;3.83;3.38;;;11.60;99.90;;;;;;5054001;28;20048;-63
2023/03/13 06:24:33;;;;;;;3.60;3.30;;;11.50;99.90;;;;;;5054547;28;20021;-63
2023/03/13 06:26:59;;;;;;;2.88;2.67;;;11.50;99.90;;;;;;5054181;28;20401;-63
2023/03/13 06:29:25;;;;;;;4.45;3.85;;;11.50;99.90;;;;;;5054301;28;20390;-63
2023/03/13 06:31:51;;;;;;;6.18;4.50;;;11.60;99.90;;;;;;5054645;28;20053;-63
2023/03/13 06:34:17;;;;;;;7.10;4.95;;;11.50;99.90;;;;;;5054077;28;20032;-63
2023/03/13 06:36:43;;;;;;;6.90;4.35;;;11.60;99.90;;;;;;5053711;28;20109;-65
2023/03/13 06:39:11;;;;;;;6.78;4.28;;;11.60;99.90;;;;;;5053991;28;20405;-63
2023/03/13 06:41:36;;;;;;;7.50;4.45;;;11.50;99.90;;;;;;5054622;28;20077;-63
2023/03/13 06:44:03;;;;;;;6.25;4.30;;;12.50;99.90;;;;;;5053703;28;20048;-63
2023/03/13 06:46:29;;;;;;;7.57;3.90;;;13.90;99.90;;;;;;5054254;28;20425;-64
2023/03/13 06:48:54;;;;;;;6.10;3.70;;;13.10;99.90;;;;;;5054031;28;20055;-64
2023/03/13 06:51:21;;;;;;;6.32;3.70;;;12.40;99.90;;;;;;5053501;28;20049;-64
2023/03/13 06:53:47;;;;;;;6.70;4.00;;;12.30;99.90;;;;;;5054205;28;20033;-64
2023/03/13 06:56:13;;;;;;;5.65;3.70;;;12.20;99.90;;;;;;5053994;28;20111;-64
2023/03/13 06:58:39;;;;;;;5.28;3.50;;;12.20;99.90;;;;;;5053922;28;20017;-63
2023/03/13 07:01:11;;;;;;;3.97;3.42;;;13.00;99.90;;;;;;5054153;28;20500;-64
2023/03/13 07:03:37;;;;;;;4.72;3.35;;;14.40;99.90;;;;;;5054159;28;20451;-64
2023/03/13 07:06:04;;;;;;;4.93;2.50;;;16.00;99.90;;;;;;5053443;28;20392;-65
2023/03/13 07:08:31;;;;;;;4.68;2.55;;;18.40;99.90;;;;;;5053323;28;20100;-64
2023/03/13 07:11:03;;;;;;;4.25;1.98;;;20.70;99.90;;;;;;5053623;28;20099;-63
2023/03/13 07:13:29;;;;;;;3.15;1.85;;;23.00;99.90;;;;;;5053083;28;20709;-64
2023/03/13 07:15:58;;;;;;;5.95;2.20;;;23.70;99.90;;;;;;5053420;28;20052;-64
2023/03/13 07:18:24;;;;;;;3.63;1.77;;;24.10;99.90;;;;;;5053320;28;20025;-65
2023/03/13 07:20:54;;;;;;;3.20;1.83;;;23.00;99.90;;;;;;5052942;28;20509;-64
2023/03/13 07:23:23;;;;;;;2.55;1.67;;;25.10;99.90;;;;;;5053175;28;20032;-66
2023/03/13 07:26:01;;;;;;;2.70;1.60;;;25.60;99.90;;;;;;5053402;28;20025;-65
2023/03/13 07:28:29;;;;;;;2.15;1.58;;;26.80;99.90;;;;;;5052854;28;20083;-66
2023/03/13 07:31:02;;;;;;;2.50;1.40;;;25.90;99.90;;;;;;5052915;28;20025;-65
2023/03/13 07:33:27;;;;;;;3.00;1.50;;;25.10;99.90;;;;;;5052856;28;20429;-66
2023/03/13 07:35:53;;;;;;;3.25;1.55;;;24.40;99.90;;;;;;5052373;28;20017;-66
2023/03/13 07:38:19;;;;;;;3.35;1.55;;;23.30;99.90;;;;;;5052998;28;20454;-65
2023/03/13 07:40:50;;;;;;;1.85;1.30;;;23.00;99.90;;;;;;5052757;28;20035;-66
2023/03/13 07:43:16;;;;;;;1.58;1.20;;;24.20;99.90;;;;;;5052862;28;20481;-67
2023/03/13 07:45:59;;;;;;;2.30;1.63;;;24.70;99.90;;;;;;5051865;28;20036;-66
2023/03/13 07:48:31;;;;;;;2.33;1.50;;;24.10;99.90;;;;;;5049061;28;20513;-66
2023/03/13 07:50:59;;;;;;;11.15;1.88;;;24.00;99.90;;;;;;5051748;28;20029;-66
2023/03/13 07:53:25;;;;;;;9.10;1.90;;;25.90;99.90;;;;;;5051524;28;20494;-66
2023/03/13 07:55:58;;;;;;;6.43;1.90;;;27.10;99.90;;;;;;5050974;28;20022;-66
2023/03/13 07:58:26;;;;;;;2.50;1.30;;;28.80;99.90;;;;;;5051872;28;20029;-67
2023/03/13 08:00:52;;;;;;;2.88;1.60;;;30.50;99.90;;;;;;5051232;28;20064;-65
2023/03/13 08:03:18;;;;;;;2.67;1.42;;;31.00;99.90;;;;;;5051634;28;20032;-65
2023/03/13 08:05:44;;;;;;;3.67;1.40;;;32.20;99.90;;;;;;5051357;28;20017;-66
2023/03/13 08:08:10;;;;;;;2.13;1.42;;;29.90;99.90;;;;;;5051379;28;20482;-66
2023/03/13 08:10:36;;;;;;;3.53;1.40;;;28.60;99.90;;;;;;5051286;28;20052;-66
2023/03/13 08:13:02;;;;;;;1.42;1.20;;;27.80;99.90;;;;;;5051498;28;20083;-68
2023/03/13 08:15:28;;;;;;;2.58;1.45;;;27.30;99.90;;;;;;5051090;28;20081;-67
2023/03/13 08:17:56;;;;;;;2.97;1.30;;;26.10;99.90;;;;;;5051040;28;20445;-66
2023/03/13 08:20:21;;;;;;;4.50;1.50;;;28.50;99.90;;;;;;5048359;28;20021;-66
2023/03/13 08:22:48;;;;;;;4.65;1.30;;;32.70;99.90;;;;;;5050926;28;20017;-66
2023/03/13 08:25:14;;;;;;;4.97;1.73;;;32.30;99.90;;;;;;5051202;28;20025;-64
2023/03/13 08:27:40;;;;;;;8.32;2.00;;;30.30;99.90;;;;;;5050990;28;20124;-65
2023/03/13 08:30:06;;;;;;;7.72;2.20;;;29.30;99.90;;;;;;5051118;28;20071;-65
2023/03/13 08:32:34;;;;;;;6.63;1.80;;;28.60;99.90;;;;;;5050701;28;20037;-64
2023/03/13 08:35:00;;;;;;;10.52;2.20;;;27.30;99.90;;;;;;5050739;28;20041;-65
2023/03/13 08:37:25;;;;;;;7.80;2.22;;;25.90;99.90;;;;;;5051441;28;20013;-64
2023/03/13 08:39:53;;;;;;;7.28;2.00;;;25.00;99.90;;;;;;5051258;28;20032;-65
2023/03/13 08:42:18;;;;;;;6.65;1.83;;;26.80;99.90;;;;;;5050748;28;20021;-64
2023/03/13 08:44:44;;;;;;;5.18;1.85;;;29.10;99.90;;;;;;5050854;28;20474;-64
2023/03/13 08:47:10;;;;;;;10.23;1.63;;;32.80;99.90;;;;;;5051031;28;20051;-65
2023/03/13 08:49:36;;;;;;;15.38;2.20;;;33.90;99.90;;;;;;5050620;28;20029;-65
2023/03/13 08:52:04;;;;;;;10.63;1.63;;;34.30;99.90;;;;;;5051505;28;20432;-65
2023/03/13 08:54:30;;;;;;;3.38;1.40;;;34.70;99.90;;;;;;5051040;28;20017;-65
2023/03/13 08:56:56;;;;;;;27.58;2.58;;;29.70;99.90;;;;;;5050825;28;20025;-65
2023/03/13 08:59:22;;;;;;;23.42;2.35;;;28.40;99.90;;;;;;5051112;28;20374;-64
2023/03/13 09:01:48;;;;;;;16.85;2.47;;;29.10;99.90;;;;;;5050664;28;20029;-65
2023/03/13 09:04:14;;;;;;;17.85;2.10;;;28.60;99.90;;;;;;5050758;28;20025;-65
2023/03/13 09:06:40;;;;;;;7.50;1.63;;;28.20;99.90;;;;;;5050898;28;20477;-65
2023/03/13 09:09:06;;;;;;;14.38;1.75;;;26.90;99.90;;;;;;5054740;28;20458;-64
2023/03/13 09:11:33;;;;;;;4.95;1.70;;;27.60;99.90;;;;;;5053272;28;20032;-64
2023/03/13 09:13:59;;;;;;;3.92;1.70;;;28.60;99.90;;;;;;5054161;28;20045;-64
2023/03/13 09:16:28;;;;;;;45.47;5.35;;;29.20;99.90;;;;;;5054158;28;20036;-64
2023/03/13 09:18:55;;;;;;;17.45;2.50;;;31.20;99.90;;;;;;5054702;28;20037;-64
2023/03/13 09:21:24;;;;;;;18.17;3.33;;;30.60;99.90;;;;;;5054557;28;20021;-64
2023/03/13 09:23:50;;;;;;;13.73;2.17;;;28.80;99.90;;;;;;5054370;28;20025;-64
2023/03/13 09:26:16;;;;;;;10.43;2.30;;;28.50;99.90;;;;;;5054369;28;20037;-65
2023/03/13 09:28:42;;;;;;;10.00;2.05;;;29.90;99.90;;;;;;5054267;28;20039;-64
2023/03/13 09:31:11;;;;;;;9.40;1.95;;;31.10;99.90;;;;;;5054113;28;20155;-64
2023/03/13 09:33:37;;;;;;;7.13;1.90;;;31.80;99.90;;;;;;5054375;28;20082;-62
2023/03/13 09:36:04;;;;;;;6.90;2.10;;;31.60;99.90;;;;;;5054214;28;20039;-63
2023/03/13 09:38:31;;;;;;;5.38;1.77;;;32.40;99.90;;;;;;5054206;28;20013;-63
2023/03/13 09:41:10;;;;;;;4.40;2.00;;;32.40;99.90;;;;;;5054355;28;20068;-64
2023/03/13 09:43:46;;;;;;;7.32;2.03;;;32.80;99.90;;;;;;5054248;28;20032;-65
2023/03/13 09:46:17;;;;;;;14.30;2.75;;;32.60;99.90;;;;;;5053731;28;20370;-64
2023/03/13 09:48:47;;;;;;;10.88;2.55;;;29.80;99.90;;;;;;5051189;28;20032;-62
2023/03/13 09:51:35;;;;;;;8.73;2.60;;;28.30;99.90;;;;;;5040949;28;20033;-62
2023/03/13 09:54:04;;;;;;;3.33;1.75;;;27.30;99.90;;;;;;5035170;28;20022;-63
2023/03/13 09:56:37;;;;;;;4.72;2.10;;;26.10;99.90;;;;;;5034879;28;20026;-63
2023/03/13 09:59:36;;;;;;;9.07;2.08;;;26.60;99.90;;;;;;5034581;28;20036;-64
2023/03/13 10:02:14;;;;;;;5.78;2.00;;;25.70;99.90;;;;;;5032431;28;20117;-62
2023/03/13 10:04:48;;;;;;;4.40;1.80;;;26.00;99.90;;;;;;5034623;28;20113;-64
2023/03/13 10:07:14;;;;;;;5.55;2.95;;;25.70;99.90;;;;;;5034147;28;20120;-63
2023/03/13 10:09:40;;;;;;;12.80;3.05;;;25.10;99.90;;;;;;5033633;28;20104;-62
2023/03/13 10:12:22;;;;;;;6.70;2.60;;;25.90;99.90;;;;;;5033343;28;20158;-63
2023/03/13 10:15:05;;;;;;;10.35;2.95;;;26.00;99.90;;;;;;5034288;28;20114;-64
2023/03/13 10:17:32;;;;;;;11.65;2.97;;;28.20;99.90;;;;;;5033930;28;20547;-63
2023/03/13 10:20:17;;;;;;;5.32;2.25;;;27.00;99.90;;;;;;5033541;28;20057;-62
2023/03/13 10:22:47;;;;;;;7.22;2.42;;;27.00;99.90;;;;;;5052994;28;20519;-61
2023/03/13 10:25:37;;;;;;;3.08;2.08;;;27.40;99.90;;;;;;5054330;28;20564;-62
2023/03/13 10:28:03;;;;;;;4.35;2.10;;;26.20;99.90;;;;;;5054030;28;20018;-62
2023/03/13 10:30:34;;;;;;;3.38;1.83;;;26.20;99.90;;;;;;5054000;28;20025;-62
2023/03/13 10:33:06;;;;;;;4.97;1.85;;;26.10;99.90;;;;;;5053904;28;20056;-62
2023/03/13 10:35:34;;;;;;;2.45;1.80;;;26.10;99.90;;;;;;5053813;28;20045;-64
2023/03/13 10:38:17;;;;;;;2.63;1.73;;;26.70;99.90;;;;;;5054063;28;20020;-66
2023/03/13 10:40:43;;;;;;;2.88;1.70;;;27.90;99.90;;;;;;5052574;28;20052;-67
2023/03/13 10:43:17;;;;;;;4.32;1.90;;;29.60;99.90;;;;;;5053230;28;20096;-67
2023/03/13 10:45:51;;;;;;;3.15;1.83;;;;;;;;;;5054103;28;20112;-66
2023/03/13 10:48:22;;;;;;;1.73;1.52;;;;;;;;;;5053057;28;20017;-67
2023/03/13 10:50:56;;;;;;;3.63;1.90;;;28.40;99.90;;;;;;5053566;28;20401;-67
2023/03/13 10:53:31;;;;;;;3.90;1.70;;;;;;;;;;5053629;28;20021;-67
2023/03/13 10:56:11;;;;;;;2.35;1.50;;;28.60;99.90;;;;;;5053858;28;20036;-67
2023/03/13 10:58:47;;;;;;;4.13;1.90;;;28.30;99.90;;;;;;5053345;28;20057;-67
2023/03/13 11:01:16;;;;;;;4.68;1.92;;;28.40;99.90;;;;;;5053786;28;20021;-66
2023/03/13 11:03:43;;;;;;;2.45;1.70;;;28.50;99.90;;;;;;5053436;28;20461;-67
2023/03/13 11:06:25;;;;;;;2.75;1.85;;;28.10;99.90;;;;;;5053420;28;20439;-66
2023/03/13 11:09:13;;;;;;;4.15;1.80;;;27.20;99.90;;;;;;5053300;28;20025;-67
2023/03/13 11:11:51;;;;;;;5.07;2.38;;;27.30;99.90;;;;;;5053046;28;20033;-67
2023/03/13 11:14:20;;;;;;;5.15;2.33;;;27.40;99.90;;;;;;5053042;28;20033;-67
2023/03/13 11:16:53;;;;;;;5.07;2.05;;;27.50;99.90;;;;;;5053350;28;20029;-67
2023/03/13 11:19:24;;;;;;;7.70;2.20;;;27.10;99.90;;;;;;5053173;28;20092;-67
2023/03/13 11:22:26;;;;;;;3.63;2.17;;;26.10;99.90;;;;;;5053343;28;20021;-67
2023/03/13 11:25:13;;;;;;;8.05;2.83;;;25.60;99.90;;;;;;5052787;28;20070;-67
2023/03/13 11:28:09;;;;;;;8.30;3.25;;;24.90;99.90;;;;;;5052605;28;20108;-67
2023/03/13 11:31:19;;;;;;;9.70;4.20;;;24.60;99.90;;;;;;5052158;28;20053;-67
2023/03/13 11:33:56;;;;;;;10.00;3.47;;;24.80;99.90;;;;;;5010932;28;20438;-67
2023/03/13 11:36:32;;;;;;;11.60;3.40;;;25.40;99.90;;;;;;5010826;28;20486;-67
2023/03/13 11:39:12;;;;;;;10.13;3.47;;;25.40;99.90;;;;;;5011650;28;20030;-67
2023/03/13 11:41:59;;;;;;;8.05;3.05;;;25.10;99.90;;;;;;5010615;28;20022;-67
2023/03/13 11:45:00;;;;;;;9.13;3.22;;;24.60;99.90;;;;;;5010831;28;20041;-66
2023/03/13 11:47:35;;;;;;;7.90;3.30;;;24.80;99.90;;;;;;5010977;28;20499;-66
2023/03/13 11:50:38;;;;;;;5.47;2.85;;;25.40;99.90;;;;;;5009755;28;20537;-67
2023/03/13 11:53:27;;;;;;;8.63;2.80;;;25.00;99.90;;;;;;5007806;28;20442;-66
2023/03/13 11:56:36;;;;;;;6.75;3.08;;;24.50;99.90;;;;;;5010144;28;20050;-67
2023/03/13 11:59:31;;;;;;;6.38;2.65;;;24.80;99.90;;;;;;4933266;29;20031;-66
2023/03/13 12:02:09;;;;;;;5.18;2.50;;;24.20;99.90;;;;;;4876592;29;20089;-67
2023/03/13 12:04:50;;;;;;;6.50;3.10;;;24.30;99.90;;;;;;4876627;29;20641;-66
2023/03/13 12:07:45;;;;;;;5.05;2.33;;;24.30;99.90;;;;;;4876476;29;20578;-67
2023/03/13 12:10:30;;;;;;;6.25;2.70;;;24.10;99.90;;;;;;4909788;29;20104;-67
2023/03/13 12:13:02;;;;;;;6.82;2.30;;;23.30;99.90;;;;;;4913936;29;20055;-67
2023/03/13 12:15:30;;;;;;;6.13;2.70;;;23.30;99.90;;;;;;4913923;29;20051;-67
2023/03/13 12:18:04;;;;;;;7.45;2.70;;;23.50;99.90;;;;;;4914121;29;20024;-67
2023/03/13 12:20:42;;;;;;;6.65;2.70;;;23.20;99.90;;;;;;4914355;29;20123;-67
2023/03/13 12:23:19;;;;;;;4.40;2.40;;;23.00;99.90;;;;;;4914096;29;20028;-67
2023/03/13 12:25:48;;;;;;;44.17;4.97;;;23.30;99.90;;;;;;4914003;29;20048;-66
2023/03/13 12:28:28;;;;;;;7.07;2.47;;;22.70;99.90;;;;;;4913876;29;20032;-66
2023/03/13 12:31:19;;;;;;;5.95;2.40;;;23.20;99.90;;;;;;4914004;29;20159;-67
2023/03/13 12:34:09;;;;;;;4.45;2.33;;;23.20;99.90;;;;;;4968698;28;20102;-67
2023/03/13 12:36:44;;;;;;;5.28;2.13;;;23.50;99.90;;;;;;4990651;28;20038;-67
2023/03/13 12:39:33;;;;;;;7.18;2.97;;;23.20;99.90;;;;;;5027983;28;20268;-66
2023/03/13 12:42:27;;;;;;;6.68;2.40;;;23.10;99.90;;;;;;5052583;28;20104;-67
2023/03/13 12:44:53;;;;;;;;;;;22.50;99.90;;;;;;5056633;28;20492;-62
2023/03/13 12:47:30;;;;;;;4.05;2.53;;;21.60;99.90;;;;;;5055901;28;19905;-63
2023/03/13 12:50:08;;;;;;;3.55;2.03;;;21.10;99.90;;;;;;5055532;28;20028;-62
2023/03/13 12:52:54;;;;;;;5.65;2.45;;;21.20;99.90;;;;;;5055318;28;20063;-62
2023/03/13 12:55:31;;;;;;;5.10;2.50;;;21.20;99.90;;;;;;5052441;28;20151;-62
2023/03/13 12:58:18;;;;;;;5.57;2.50;;;21.00;99.90;;;;;;5055786;28;20104;-62
2023/03/13 13:00:47;;;;;;;8.23;2.70;;;20.90;99.90;;;;;;5055701;28;20068;-63